Time;durP1;ratioP1;P1;durP2;ratioP2;P2;SDS_P1;SDS_P2;PMS_P1;PMS_P2;Temp;Humidity;BMP_temperature;BMP_pressure;BME280_temperature;BME280_humidity;BME280_pressure;Samples;Min_cycle;Max_cycle;Signal;HPM_P1;HPM_P2
2021/05/21 00:00:41;;;;;;;5.28;0.90;;;14.80;99.90;;;;;;5024055;28;20026;-68
2021/05/21 00:03:08;;;;;;;4.53;1.17;;;14.80;99.90;;;;;;5027738;28;20014;-71
2021/05/21 00:05:34;;;;;;;3.92;1.15;;;14.80;99.90;;;;;;5030661;28;20021;-67
2021/05/21 00:08:00;;;;;;;4.55;0.90;;;14.80;99.90;;;;;;5037485;28;20018;-70
2021/05/21 00:10:26;;;;;;;2.67;0.93;;;14.70;99.90;;;;;;5027016;28;20040;-67
2021/05/21 00:12:53;;;;;;;1.95;0.80;;;14.70;99.90;;;;;;5003398;28;20028;-67
2021/05/21 00:15:19;;;;;;;9.43;2.15;;;14.70;99.90;;;;;;5017326;28;20022;-67
2021/05/21 00:17:45;;;;;;;16.23;2.25;;;14.20;99.90;;;;;;5008006;28;20030;-68
2021/05/21 00:20:11;;;;;;;18.10;3.60;;;13.90;99.90;;;;;;5019096;28;20137;-69
2021/05/21 00:22:37;;;;;;;16.27;3.00;;;13.60;99.90;;;;;;5012019;28;20041;-67
2021/05/21 00:25:03;;;;;;;20.60;3.25;;;13.40;99.90;;;;;;5004534;28;20553;-68
2021/05/21 00:27:29;;;;;;;24.08;3.92;;;13.20;99.90;;;;;;5002777;28;20026;-67
2021/05/21 00:29:54;;;;;;;22.35;3.45;;;13.10;99.90;;;;;;5005296;28;20098;-68
2021/05/21 00:32:20;;;;;;;23.30;4.15;;;13.00;99.90;;;;;;5004391;28;20449;-68
2021/05/21 00:34:46;;;;;;;34.42;4.15;;;13.00;99.90;;;;;;5001159;28;20038;-69
2021/05/21 00:37:11;;;;;;;26.13;4.82;;;13.00;99.90;;;;;;5007932;28;20014;-69
2021/05/21 00:39:37;;;;;;;24.98;3.08;;;12.90;99.90;;;;;;5009643;28;20044;-66
2021/05/21 00:42:07;;;;;;;41.33;3.63;;;12.80;99.90;;;;;;5000838;28;20062;-68
2021/05/21 00:44:32;;;;;;;30.95;3.85;;;12.70;99.90;;;;;;5011867;28;20113;-67
2021/05/21 00:46:58;;;;;;;23.73;4.28;;;12.60;99.90;;;;;;5008275;28;20109;-65
2021/05/21 00:49:24;;;;;;;28.98;3.53;;;12.30;99.90;;;;;;5008158;28;20080;-67
2021/05/21 00:51:49;;;;;;;19.90;2.88;;;12.20;99.90;;;;;;5007373;28;20105;-67
2021/05/21 00:54:19;;;;;;;20.17;3.97;;;12.10;99.90;;;;;;5020831;28;20033;-68
2021/05/21 00:56:46;;;;;;;30.30;3.97;;;12.10;99.90;;;;;;5000492;28;20414;-66
2021/05/21 00:59:12;;;;;;;16.65;3.30;;;12.10;99.90;;;;;;5003957;28;20537;-67
2021/05/21 01:01:38;;;;;;;20.98;2.75;;;12.00;99.90;;;;;;5007673;28;20022;-67
2021/05/21 01:04:04;;;;;;;22.73;3.28;;;12.00;99.90;;;;;;5006123;28;20025;-68
2021/05/21 01:06:30;;;;;;;19.20;3.47;;;12.00;99.90;;;;;;5009817;28;20026;-67
2021/05/21 01:08:58;;;;;;;15.20;3.08;;;12.00;99.90;;;;;;5009695;28;20057;-66
2021/05/21 01:11:27;;;;;;;22.77;5.13;;;12.10;99.90;;;;;;5006856;28;20026;-68
2021/05/21 01:13:53;;;;;;;27.55;3.75;;;12.20;99.90;;;;;;5006420;28;20041;-68
2021/05/21 01:16:20;;;;;;;27.60;4.20;;;12.20;99.90;;;;;;5012328;28;20022;-68
2021/05/21 01:18:46;;;;;;;30.08;3.65;;;12.20;99.90;;;;;;5013825;28;20025;-67
2021/05/21 01:21:12;;;;;;;32.90;4.15;;;12.10;99.90;;;;;;5012333;28;20018;-68
2021/05/21 01:23:38;;;;;;;23.90;3.33;;;12.20;99.90;;;;;;5007792;28;20022;-67
2021/05/21 01:26:03;;;;;;;25.17;3.78;;;12.20;99.90;;;;;;5008676;28;20033;-69
2021/05/21 01:28:29;;;;;;;19.10;4.10;;;12.30;99.90;;;;;;5007652;28;20089;-68
2021/05/21 01:30:55;;;;;;;24.23;3.95;;;12.20;99.90;;;;;;5007386;28;20038;-69
2021/05/21 01:33:22;;;;;;;14.15;2.85;;;12.30;99.90;;;;;;5008495;28;20041;-66
2021/05/21 01:35:47;;;;;;;23.35;3.03;;;12.30;99.90;;;;;;5013237;28;20071;-68
2021/05/21 01:38:13;;;;;;;17.27;3.33;;;12.30;99.90;;;;;;5011669;28;20705;-67
2021/05/21 01:40:42;;;;;;;20.98;4.18;;;12.20;99.90;;;;;;5008625;28;20030;-66
2021/05/21 01:43:08;;;;;;;32.65;4.75;;;12.10;99.90;;;;;;5008710;28;20037;-68
2021/05/21 01:45:34;;;;;;;21.67;3.35;;;12.10;99.90;;;;;;5010509;28;20030;-67
2021/05/21 01:47:59;;;;;;;22.08;3.35;;;12.00;99.90;;;;;;5005214;28;20028;-66
2021/05/21 01:50:26;;;;;;;19.23;3.92;;;12.00;99.90;;;;;;5001715;28;20464;-68
2021/05/21 01:52:51;;;;;;;29.58;3.67;;;12.00;99.90;;;;;;5012705;28;20489;-68
2021/05/21 01:55:18;;;;;;;26.92;4.05;;;11.90;99.90;;;;;;5005229;28;20109;-65
2021/05/21 01:57:49;;;;;;;27.42;4.63;;;11.80;99.90;;;;;;5003385;28;20030;-67
2021/05/21 02:00:23;;;;;;;26.10;3.88;;;11.80;99.90;;;;;;5002470;28;20401;-67
2021/05/21 02:02:49;;;;;;;21.13;3.97;;;11.70;99.90;;;;;;5003985;28;20021;-69
2021/05/21 02:05:15;;;;;;;27.30;4.18;;;11.70;99.90;;;;;;5010939;28;20781;-66
2021/05/21 02:07:41;;;;;;;25.20;4.15;;;11.80;99.90;;;;;;5009904;28;20536;-68
2021/05/21 02:10:09;;;;;;;25.48;4.40;;;11.70;99.90;;;;;;5008660;28;20033;-66
2021/05/21 02:12:36;;;;;;;23.38;3.75;;;11.60;99.90;;;;;;5019026;28;20067;-68
2021/05/21 02:15:07;;;;;;;29.55;4.10;;;11.60;99.90;;;;;;5021634;28;20021;-68
2021/05/21 02:17:34;;;;;;;32.15;4.90;;;11.80;99.90;;;;;;5012745;28;20026;-69
2021/05/21 02:20:01;;;;;;;23.02;3.67;;;11.80;99.90;;;;;;5015104;28;20029;-67
2021/05/21 02:22:29;;;;;;;25.83;4.07;;;11.80;99.90;;;;;;5022062;28;20103;-68
2021/05/21 02:24:56;;;;;;;22.05;4.00;;;11.70;99.90;;;;;;5021415;28;20035;-68
2021/05/21 02:27:23;;;;;;;24.10;4.70;;;11.70;99.90;;;;;;5021220;28;20030;-68
2021/05/21 02:29:56;;;;;;;25.23;4.63;;;11.70;99.90;;;;;;5016235;28;20022;-69
2021/05/21 02:32:21;;;;;;;25.35;4.22;;;11.70;99.90;;;;;;5009213;28;20026;-67
2021/05/21 02:34:47;;;;;;;32.65;4.57;;;11.70;99.90;;;;;;5011674;28;20026;-66
2021/05/21 02:37:18;;;;;;;20.17;3.75;;;11.60;99.90;;;;;;5012706;28;20022;-68
2021/05/21 02:39:44;;;;;;;34.20;4.07;;;11.60;99.90;;;;;;5009790;28;20030;-67
2021/05/21 02:42:10;;;;;;;23.40;4.32;;;11.50;99.90;;;;;;5011772;28;20400;-68
2021/05/21 02:44:39;;;;;;;24.85;4.97;;;11.50;99.90;;;;;;5012273;28;20033;-70
2021/05/21 02:47:05;;;;;;;23.17;4.63;;;11.60;99.90;;;;;;5002289;28;20018;-67
2021/05/21 02:49:37;;;;;;;22.17;3.85;;;11.60;99.90;;;;;;5013679;28;22143;-68
2021/05/21 02:52:06;;;;;;;21.90;3.30;;;11.70;99.90;;;;;;5004704;28;20026;-69
2021/05/21 02:54:32;;;;;;;27.45;4.05;;;11.60;99.90;;;;;;5004361;28;20294;-68
2021/05/21 03:00:29;;;;;;;20.98;3.88;;;11.50;99.90;;;;;;5004543;28;20105;-64
2021/05/21 03:02:54;;;;;;;23.30;5.03;;;11.60;99.90;;;;;;5018535;28;20108;-66
2021/05/21 03:05:41;;;;;;;23.13;3.42;;;11.50;99.90;;;;;;5014053;28;20057;-68
2021/05/21 03:08:06;;;;;;;18.52;3.40;;;11.50;99.90;;;;;;4997942;28;20038;-66
2021/05/21 03:10:51;;;;;;;29.52;4.00;;;11.40;99.90;;;;;;5003025;28;20024;-68
2021/05/21 03:13:17;;;;;;;21.88;4.30;;;11.40;99.90;;;;;;5007269;28;20033;-67
2021/05/21 03:15:47;;;;;;;28.30;5.00;;;11.50;99.90;;;;;;4996936;28;20112;-68
2021/05/21 03:18:23;;;;;;;28.35;3.90;;;11.50;99.90;;;;;;5000703;28;20034;-65
2021/05/21 03:20:50;;;;;;;25.15;4.40;;;11.50;99.90;;;;;;5024910;28;20745;-70
2021/05/21 03:23:25;;;;;;;23.73;4.20;;;11.40;99.90;;;;;;5000655;28;20018;-69
2021/05/21 03:25:51;;;;;;;22.23;4.35;;;11.50;99.90;;;;;;5011361;28;20144;-67
2021/05/21 03:28:17;;;;;;;27.27;4.45;;;11.40;99.90;;;;;;5002528;28;20640;-67
2021/05/21 03:30:43;;;;;;;25.88;3.65;;;11.40;99.90;;;;;;5007973;28;20436;-70
2021/05/21 03:33:09;;;;;;;16.48;2.85;;;11.40;99.90;;;;;;5005606;28;20081;-68
2021/05/21 03:35:36;;;;;;;23.13;4.45;;;11.40;99.90;;;;;;4997692;28;20026;-67
2021/05/21 03:38:05;;;;;;;25.08;3.13;;;11.40;99.90;;;;;;5018157;28;20037;-69
2021/05/21 03:40:35;;;;;;;22.42;3.22;;;11.50;99.90;;;;;;5011414;28;20023;-68
2021/05/21 03:43:21;;;;;;;;;;;;;;;;;;;;;
2021/05/21 03:45:46;;;;;;;34.38;4.80;;;11.40;99.90;;;;;;5015999;28;20116;-71
2021/05/21 03:48:18;;;;;;;17.73;3.08;;;11.50;99.90;;;;;;5000178;28;20101;-67
2021/05/21 03:50:43;;;;;;;25.35;4.10;;;11.50;99.90;;;;;;5011605;28;20030;-66
2021/05/21 03:53:20;;;;;;;22.38;3.60;;;11.50;99.90;;;;;;4998576;28;20041;-66
2021/05/21 03:55:46;;;;;;;17.30;3.17;;;11.50;99.90;;;;;;5002298;28;20022;-68
2021/05/21 03:58:12;;;;;;;19.60;3.20;;;11.50;99.90;;;;;;5003189;28;20013;-68
2021/05/21 04:00:58;;;;;;;24.67;3.85;;;11.50;99.90;;;;;;5005689;28;20106;-69
2021/05/21 04:03:24;;;;;;;31.52;4.72;;;11.50;99.90;;;;;;5012078;28;20045;-67
2021/05/21 04:05:50;;;;;;;24.77;3.65;;;11.50;99.90;;;;;;5014025;28;20097;-70
2021/05/21 04:08:35;;;;;;;18.90;2.83;;;11.60;99.90;;;;;;5010059;28;20102;-71
2021/05/21 04:11:15;;;;;;;22.50;3.58;;;11.60;99.90;;;;;;5008383;28;20030;-68
2021/05/21 04:13:44;;;;;;;23.30;3.63;;;11.60;99.90;;;;;;5014276;28;20041;-69
2021/05/21 04:16:13;;;;;;;22.50;3.47;;;11.70;99.90;;;;;;5014203;28;20028;-67
2021/05/21 04:18:39;;;;;;;19.95;4.10;;;11.70;99.90;;;;;;5010623;28;20545;-69
2021/05/21 04:21:05;;;;;;;19.23;3.50;;;11.70;99.90;;;;;;5001050;28;20080;-68
2021/05/21 04:23:30;;;;;;;30.67;3.28;;;11.70;99.90;;;;;;5001124;28;20026;-69
2021/05/21 04:25:56;;;;;;;21.23;3.40;;;11.80;99.90;;;;;;5006807;28;20076;-68
2021/05/21 04:28:25;;;;;;;18.23;3.15;;;11.80;99.90;;;;;;5001807;28;20026;-64
2021/05/21 04:30:57;;;;;;;27.33;4.05;;;11.80;99.90;;;;;;4997800;28;20026;-67
2021/05/21 04:33:31;;;;;;;18.80;4.07;;;11.80;99.90;;;;;;5000353;28;20058;-69
2021/05/21 04:35:56;;;;;;;21.23;3.03;;;11.80;99.90;;;;;;4991661;28;20031;-68
2021/05/21 04:38:22;;;;;;;20.45;4.10;;;11.80;99.90;;;;;;5007890;28;20080;-66
2021/05/21 04:40:51;;;;;;;23.52;3.08;;;11.80;99.90;;;;;;5006449;28;20482;-67
2021/05/21 04:43:25;;;;;;;30.23;5.07;;;11.80;99.90;;;;;;5009679;28;20026;-68
2021/05/21 04:45:51;;;;;;;21.40;3.72;;;11.80;99.90;;;;;;5009722;28;20052;-67
2021/05/21 04:48:17;;;;;;;27.35;4.15;;;11.80;99.90;;;;;;5008696;28;20030;-68
2021/05/21 04:50:46;;;;;;;24.27;4.68;;;11.80;99.90;;;;;;5009519;28;20359;-69
2021/05/21 04:53:44;;;;;;;25.50;3.13;;;11.80;99.90;;;;;;4997286;28;20018;-68
2021/05/21 04:56:10;;;;;;;19.60;3.80;;;11.90;99.90;;;;;;5000662;28;20078;-68
2021/05/21 04:58:35;;;;;;;19.33;3.38;;;12.10;99.90;;;;;;5022541;28;20033;-67
2021/05/21 05:01:30;;;;;;;22.55;4.22;;;12.10;99.90;;;;;;5010963;28;20015;-68
2021/05/21 05:06:51;;;;;;;18.88;3.47;;;12.10;99.90;;;;;;4998370;28;20081;-68
2021/05/21 05:09:38;;;;;;;21.35;4.22;;;12.10;99.90;;;;;;5007925;28;20042;-70
2021/05/21 05:15:10;;;;;;;30.38;5.38;;;12.10;99.90;;;;;;4996819;28;20046;-68
2021/05/21 05:17:35;;;;;;;18.80;4.22;;;12.10;99.90;;;;;;4991891;28;20092;-67
2021/05/21 05:20:26;;;;;;;19.85;3.10;;;12.20;99.90;;;;;;4999897;28;20062;-68
2021/05/21 05:22:52;;;;;;;17.63;3.53;;;12.20;99.90;;;;;;5010770;28;20045;-68
2021/05/21 05:25:44;;;;;;;25.95;3.90;;;12.20;99.90;;;;;;5025674;28;20433;-71
2021/05/21 05:28:16;;;;;;;19.95;3.13;;;12.30;99.90;;;;;;5012321;28;20421;-69
2021/05/21 05:30:48;;;;;;;21.98;3.40;;;12.30;99.90;;;;;;5009715;28;20034;-67
2021/05/21 05:33:17;;;;;;;19.70;3.10;;;12.50;99.90;;;;;;5008411;28;20050;-64
2021/05/21 05:35:43;;;;;;;30.10;5.32;;;12.40;99.90;;;;;;4997602;28;20034;-69
2021/05/21 05:38:27;;;;;;;21.17;3.10;;;12.40;99.90;;;;;;5008827;28;20053;-72
2021/05/21 05:40:53;;;;;;;25.48;4.32;;;12.30;99.90;;;;;;5005495;28;20076;-67
2021/05/21 05:43:18;;;;;;;21.20;3.67;;;12.30;99.90;;;;;;5019371;28;20644;-70
2021/05/21 05:45:45;;;;;;;19.25;3.53;;;12.30;99.90;;;;;;5024792;28;20095;-68
2021/05/21 05:51:16;;;;;;;27.75;4.75;;;12.40;99.90;;;;;;5009826;28;20122;-67
2021/05/21 05:54:00;;;;;;;16.23;3.00;;;12.50;99.90;;;;;;5015806;28;20030;-68
2021/05/21 05:59:46;;;;;;;18.38;3.72;;;12.70;99.90;;;;;;5014442;28;20441;-67
2021/05/21 06:02:20;;;;;;;22.85;4.10;;;12.70;99.90;;;;;;5015653;28;20029;-67
2021/05/21 06:05:02;;;;;;;;;;;;;;;;;;;;;
2021/05/21 06:07:29;;;;;;;25.88;3.20;;;12.70;99.90;;;;;;5016941;28;20121;-67
2021/05/21 06:09:54;;;;;;;17.10;2.58;;;13.00;99.90;;;;;;5006077;28;20027;-70
2021/05/21 06:12:51;;;;;;;22.17;3.30;;;13.20;99.90;;;;;;5014786;28;20032;-68
2021/05/21 06:15:20;;;;;;;30.58;3.78;;;13.30;99.90;;;;;;5008920;28;20328;-65
2021/05/21 06:17:45;;;;;;;24.15;4.13;;;13.40;99.90;;;;;;5011300;28;20076;-70
2021/05/21 06:20:41;;;;;;;16.90;3.30;;;13.50;99.90;;;;;;5015936;28;20010;-68
2021/05/21 06:23:18;;;;;;;17.83;2.75;;;13.60;99.90;;;;;;5014168;28;20041;-69
2021/05/21 06:31:03;;;;;;;14.55;2.60;;;13.80;99.90;;;;;;5014349;28;20034;-69
2021/05/21 06:33:29;;;;;;;25.70;3.38;;;13.90;99.90;;;;;;5021098;28;20088;-71
2021/05/21 06:39:13;;;;;;;22.33;2.70;;;13.90;99.90;;;;;;5012614;28;20049;-67
2021/05/21 06:41:39;;;;;;;14.73;2.78;;;13.80;99.90;;;;;;5008342;28;20045;-69
2021/05/21 06:44:05;;;;;;;16.55;2.90;;;14.00;99.90;;;;;;5007356;28;20034;-69
2021/05/21 06:47:02;;;;;;;;;;;;;;;;;;;;;
2021/05/21 06:49:16;;;;;;;15.02;1.75;;;13.70;99.90;;;;;;5015651;28;20053;-70
2021/05/21 06:51:45;;;;;;;20.63;4.45;;;13.60;99.90;;;;;;5016620;28;20026;-70
2021/05/21 06:55:04;;;;;;;15.48;3.00;;;13.70;99.90;;;;;;5026621;28;20034;-69
2021/05/21 06:57:52;;;;;;;23.45;3.33;;;13.60;99.90;;;;;;5020219;28;20038;-68
2021/05/21 07:03:16;;;;;;;17.58;3.53;;;13.60;99.90;;;;;;4997128;28;20121;-65
2021/05/21 07:06:05;;;;;;;18.15;4.10;;;13.90;99.90;;;;;;5014097;28;20030;-67
2021/05/21 07:08:43;;;;;;;20.70;3.10;;;13.70;99.90;;;;;;4953900;28;20105;-70
2021/05/21 07:11:32;;;;;;;18.20;3.60;;;13.80;99.90;;;;;;4974781;28;20035;-68
2021/05/21 07:14:31;;;;;;;20.23;3.10;;;14.00;99.90;;;;;;4927076;29;20067;-67
2021/05/21 07:16:56;;;;;;;18.95;2.80;;;14.20;99.90;;;;;;4933542;29;20059;-67
2021/05/21 07:19:25;;;;;;;16.27;3.33;;;14.30;99.90;;;;;;4977149;28;20039;-70
2021/05/21 07:21:50;;;;;;;21.17;3.15;;;14.30;99.90;;;;;;4987056;28;20038;-65
2021/05/21 07:24:16;;;;;;;21.67;3.65;;;14.50;99.90;;;;;;4996689;28;20026;-68
2021/05/21 07:26:42;;;;;;;21.35;2.78;;;14.60;99.90;;;;;;4993365;28;20030;-71
2021/05/21 07:29:07;;;;;;;15.27;2.40;;;14.40;99.90;;;;;;4997856;28;20090;-69
2021/05/21 07:31:52;;;;;;;16.05;3.38;;;14.10;99.90;;;;;;5008875;28;20033;-68
2021/05/21 07:35:05;;;;;;;23.20;3.40;;;14.10;99.90;;;;;;5005250;28;20041;-65
2021/05/21 07:37:31;;;;;;;17.65;3.15;;;14.10;99.90;;;;;;5007862;28;20029;-67
2021/05/21 07:39:57;;;;;;;26.67;3.25;;;13.80;99.90;;;;;;5009591;28;20397;-68
2021/05/21 07:42:23;;;;;;;13.57;2.78;;;13.70;99.90;;;;;;5008507;28;20181;-66
2021/05/21 07:44:48;;;;;;;32.78;3.72;;;13.50;99.90;;;;;;5014706;28;20025;-68
2021/05/21 07:47:14;;;;;;;14.70;3.60;;;13.70;99.90;;;;;;5013523;28;20033;-67
2021/05/21 07:52:26;;;;;;;12.00;2.20;;;13.90;99.90;;;;;;5021715;28;20028;-67
2021/05/21 07:54:52;;;;;;;16.40;2.85;;;13.90;99.90;;;;;;5031846;28;20053;-67
2021/05/21 07:57:17;;;;;;;16.33;3.15;;;14.00;99.90;;;;;;5006305;28;20022;-70
2021/05/21 08:00:01;;;;;;;10.18;2.97;;;14.10;99.90;;;;;;5012327;28;20030;-68
2021/05/21 08:03:05;;;;;;;15.90;3.13;;;14.00;99.90;;;;;;5011568;28;20053;-69
2021/05/21 08:05:30;;;;;;;;;;;14.10;99.90;;;;;;5004727;28;20018;-68
2021/05/21 08:11:31;;;;;;;14.20;2.90;;;14.10;99.90;;;;;;5053111;28;20040;-69
2021/05/21 08:16:51;;;;;;;21.42;3.63;;;13.60;99.90;;;;;;4941640;29;20039;-67
2021/05/21 08:19:36;;;;;;;13.82;2.72;;;13.40;99.90;;;;;;4949542;28;20066;-66
2021/05/21 08:24:46;;;;;;;15.35;2.67;;;13.40;99.90;;;;;;4953011;29;20198;-66
2021/05/21 08:29:56;;;;;;;10.85;2.47;;;13.50;99.90;;;;;;4949853;29;20043;-67
2021/05/21 08:32:40;;;;;;;15.35;2.63;;;13.80;99.90;;;;;;4959480;28;20051;-68
2021/05/21 08:38:07;;;;;;;17.25;3.20;;;13.80;99.90;;;;;;5036293;28;20603;-69
2021/05/21 08:40:38;;;;;;;19.60;3.17;;;13.70;99.90;;;;;;5040694;28;20109;-67
2021/05/21 08:43:24;;;;;;;15.27;2.83;;;13.80;99.90;;;;;;5017433;28;20113;-68
2021/05/21 08:45:50;;;;;;;13.65;2.88;;;13.90;99.90;;;;;;5033955;28;20029;-71
2021/05/21 08:49:24;;;;;;;9.55;2.20;;;14.00;99.90;;;;;;5029282;28;20036;-66
2021/05/21 08:52:21;;;;;;;9.70;1.70;;;13.70;99.90;;;;;;5016532;28;20076;-67
2021/05/21 08:54:56;;;;;;;21.08;3.47;;;13.90;99.90;;;;;;4992565;28;20048;-68
2021/05/21 08:57:22;;;;;;;13.85;2.92;;;14.00;99.90;;;;;;5028054;28;20026;-66
2021/05/21 08:59:47;;;;;;;11.65;2.53;;;13.80;99.90;;;;;;5034426;28;20476;-66
2021/05/21 09:02:24;;;;;;;16.05;2.60;;;14.10;99.90;;;;;;5036625;28;20457;-67
2021/05/21 09:07:56;;;;;;;18.50;3.45;;;14.10;99.90;;;;;;5008290;28;20041;-67
2021/05/21 09:10:58;;;;;;;10.90;2.40;;;14.30;99.90;;;;;;5007991;28;20033;-65
2021/05/21 09:13:33;;;;;;;15.85;3.65;;;14.40;99.90;;;;;;5012990;28;20135;-67
2021/05/21 09:16:23;;;;;;;15.60;3.20;;;14.30;99.90;;;;;;5024366;28;20341;-68
2021/05/21 09:19:09;;;;;;;8.93;2.55;;;13.90;99.90;;;;;;5011046;28;20026;-66
2021/05/21 09:22:06;;;;;;;20.55;3.22;;;13.90;99.90;;;;;;5006758;28;20537;-65
2021/05/21 09:24:33;;;;;;;14.13;3.35;;;13.90;99.90;;;;;;5009536;28;20432;-67
2021/05/21 09:27:00;;;;;;;14.18;3.10;;;14.20;99.90;;;;;;5011215;28;20073;-69
2021/05/21 09:30:06;;;;;;;13.80;2.53;;;14.00;99.90;;;;;;5011493;28;20498;-68
2021/05/21 09:32:34;;;;;;;16.75;2.83;;;13.80;99.90;;;;;;5036146;28;20032;-66
2021/05/21 09:42:11;;;;;;;22.38;3.50;;;14.30;99.90;;;;;;5003041;28;20057;-65
2021/05/21 09:44:53;;;;;;;13.63;3.00;;;14.80;99.90;;;;;;5013028;28;20069;-67
2021/05/21 09:47:47;;;;;;;14.60;2.53;;;14.70;99.90;;;;;;5007268;28;20022;-67
2021/05/21 09:50:20;;;;;;;14.30;2.60;;;14.80;99.90;;;;;;4999841;28;20026;-67
2021/05/21 09:53:07;;;;;;;12.88;2.28;;;15.30;99.90;;;;;;5006870;28;20053;-67
2021/05/21 09:55:35;;;;;;;12.02;1.90;;;15.10;99.90;;;;;;5016742;28;20101;-67
2021/05/21 09:58:06;;;;;;;15.40;2.65;;;15.00;99.90;;;;;;5019124;28;20018;-66
2021/05/21 10:00:55;;;;;;;15.63;3.63;;;14.80;99.90;;;;;;5001063;28;20129;-68
2021/05/21 10:03:20;;;;;;;11.93;2.47;;;14.60;99.90;;;;;;5008540;28;20022;-67
2021/05/21 10:05:46;;;;;;;16.13;3.75;;;14.40;99.90;;;;;;4998999;28;20064;-67
2021/05/21 10:08:12;;;;;;;14.43;2.50;;;14.00;99.90;;;;;;5011624;28;20045;-69
2021/05/21 10:10:58;;;;;;;14.95;3.00;;;13.90;99.90;;;;;;5011844;28;20037;-67
2021/05/21 10:13:31;;;;;;;16.35;2.60;;;13.60;99.90;;;;;;5005263;28;20739;-67
2021/05/21 10:15:57;;;;;;;10.68;2.47;;;13.50;99.90;;;;;;5002700;28;20061;-68
2021/05/21 10:18:26;;;;;;;9.95;2.35;;;13.80;99.90;;;;;;5001458;28;20030;-66
2021/05/21 10:20:55;;;;;;;13.50;3.58;;;14.10;99.90;;;;;;5009756;28;20397;-67
2021/05/21 10:23:41;;;;;;;14.32;2.40;;;14.10;99.90;;;;;;5008482;28;20021;-67
2021/05/21 10:26:14;;;;;;;19.08;2.97;;;14.30;99.90;;;;;;5009737;28;20584;-70
2021/05/21 10:28:44;;;;;;;10.07;2.40;;;14.40;99.90;;;;;;5008079;28;20033;-67
2021/05/21 10:31:26;;;;;;;15.20;3.00;;;14.50;99.90;;;;;;5004894;28;20448;-68
2021/05/21 10:34:38;;;;;;;;;;;;;;;;;;;;;
2021/05/21 10:37:24;;;;;;;11.40;2.13;;;14.40;99.90;;;;;;5002380;28;20026;-65
2021/05/21 10:40:27;;;;;;;12.15;2.30;;;14.60;99.90;;;;;;5005137;28;20014;-63
2021/05/21 10:42:53;;;;;;;16.50;3.10;;;14.30;99.90;;;;;;5032210;28;20066;-68
2021/05/21 10:46:08;;;;;;;11.50;3.17;;;14.30;99.90;;;;;;5003729;28;20113;-64
2021/05/21 10:48:33;;;;;;;9.98;2.22;;;14.40;99.90;;;;;;4999965;28;20038;-68
2021/05/21 10:54:43;;;;;;;17.48;2.42;;;14.10;99.90;;;;;;5020707;28;20028;-66
2021/05/21 11:00:12;;;;;;;11.45;1.73;;;14.30;99.90;;;;;;5027913;28;20041;-67
2021/05/21 11:03:02;;;;;;;8.52;2.00;;;14.40;99.90;;;;;;5027878;28;20501;-69
2021/05/21 11:05:36;;;;;;;9.07;1.83;;;14.60;99.90;;;;;;5021849;28;20045;-67
2021/05/21 11:08:37;;;;;;;;;;;;;;;;;;;;;
2021/05/21 11:14:04;;;;;;;9.93;1.58;;;14.70;99.90;;;;;;5015229;28;20029;-68
2021/05/21 11:16:50;;;;;;;9.52;2.88;;;14.50;99.90;;;;;;5011259;28;20033;-70
2021/05/21 11:19:52;;;;;;;13.88;2.05;;;14.90;99.90;;;;;;5014369;28;20030;-65
2021/05/21 11:25:37;;;;;;;15.93;3.25;;;15.60;99.90;;;;;;5010396;28;20073;-66
2021/05/21 11:28:23;;;;;;;;;;;;;;;;;;;;;
2021/05/21 11:30:48;;;;;;;13.25;2.20;;;15.50;99.90;;;;;;5012696;28;20026;-68
2021/05/21 11:33:33;;;;;;;13.55;2.70;;;15.80;99.90;;;;;;5002394;28;20102;-67
2021/05/21 11:36:19;;;;;;;11.18;2.38;;;15.70;99.90;;;;;;5011554;28;20014;-66
2021/05/21 11:38:54;;;;;;;12.82;2.20;;;15.60;99.90;;;;;;5012145;28;20024;-65
2021/05/21 11:41:55;;;;;;;;;;;;;;;;;;;;;
2021/05/21 11:44:27;;;;;;;17.17;2.10;;;15.20;99.90;;;;;;5010997;28;20397;-67
2021/05/21 11:47:01;;;;;;;11.90;2.28;;;14.60;99.90;;;;;;5006662;28;20025;-65
2021/05/21 11:49:27;;;;;;;14.45;2.88;;;14.30;99.90;;;;;;5011788;28;20186;-66
2021/05/21 11:52:27;;;;;;;15.38;2.83;;;13.80;99.90;;;;;;4999275;28;20031;-68
2021/05/21 11:57:53;;;;;;;22.45;9.45;;;12.60;99.90;;;;;;5022018;28;20176;-66
2021/05/21 12:00:26;;;;;;;19.23;9.43;;;12.30;99.90;;;;;;5007702;28;20030;-69
2021/05/21 12:02:52;;;;;;;19.20;9.40;;;12.20;99.90;;;;;;5005785;28;20026;-66
2021/05/21 12:05:17;;;;;;;26.90;8.65;;;12.40;99.90;;;;;;5010806;28;20088;-65
2021/05/21 12:08:05;;;;;;;21.55;7.40;;;12.60;99.90;;;;;;5007159;28;20022;-64
2021/05/21 12:11:22;;;;;;;;;;;;;;;;;;;;;
2021/05/21 12:13:48;;;;;;;15.68;3.78;;;12.70;99.90;;;;;;4981436;28;20037;-66
2021/05/21 12:16:19;;;;;;;11.93;3.75;;;12.60;99.90;;;;;;5006008;28;20105;-65
2021/05/21 12:20:02;;;;;;;7.05;3.00;;;12.40;99.90;;;;;;5008017;28;20032;-67
2021/05/21 12:22:34;;;;;;;17.80;3.95;;;12.30;99.90;;;;;;4947461;28;20058;-66
2021/05/21 12:25:35;;;;;;;11.82;2.78;;;12.50;99.90;;;;;;4948678;28;20172;-66
2021/05/21 12:28:21;;;;;;;11.50;2.38;;;12.80;99.90;;;;;;4982997;28;20362;-65
2021/05/21 12:30:46;;;;;;;11.43;2.75;;;13.10;99.90;;;;;;5010151;28;20080;-67
2021/05/21 12:33:42;;;;;;;18.55;2.58;;;13.50;99.90;;;;;;4996467;28;20430;-69
2021/05/21 12:36:14;;;;;;;15.57;2.92;;;13.60;99.90;;;;;;4999101;28;20029;-68
2021/05/21 12:38:46;;;;;;;;;;;13.60;99.90;;;;;;5009314;28;20066;-70
2021/05/21 12:41:35;;;;;;;16.05;3.05;;;13.80;99.90;;;;;;5009725;28;19913;-72
2021/05/21 12:44:24;;;;;;;16.00;3.15;;;13.90;99.90;;;;;;5042125;28;20108;-68
2021/05/21 12:46:52;;;;;;;16.20;2.75;;;14.20;99.90;;;;;;5004793;28;20040;-66
2021/05/21 12:50:06;;;;;;;15.95;2.92;;;14.10;99.90;;;;;;5026177;28;20034;-67
2021/05/21 12:52:31;;;;;;;10.02;2.90;;;13.90;99.90;;;;;;5005762;28;20100;-68
2021/05/21 12:55:20;;;;;;;10.27;2.42;;;14.30;99.90;;;;;;5020408;28;20054;-71
2021/05/21 13:01:01;;;;;;;12.65;2.45;;;14.90;99.90;;;;;;4971087;28;20414;-66
2021/05/21 13:03:26;;;;;;;16.10;3.50;;;15.20;99.90;;;;;;4991385;28;20430;-66
2021/05/21 13:06:23;;;;;;;13.38;2.53;;;15.20;99.90;;;;;;4995179;28;20034;-66
2021/05/21 13:08:49;;;;;;;17.65;2.30;;;15.20;99.90;;;;;;4979571;28;20046;-67
2021/05/21 13:19:24;;;;;;;13.07;1.90;;;15.80;99.90;;;;;;4996851;28;20295;-69
2021/05/21 13:22:10;;;;;;;13.82;2.08;;;16.10;99.90;;;;;;4965831;28;20126;-69
2021/05/21 13:24:41;;;;;;;12.05;2.20;;;15.90;99.90;;;;;;4891230;29;20392;-68
2021/05/21 13:27:06;;;;;;;10.02;2.63;;;16.20;99.90;;;;;;4888823;29;20067;-68
2021/05/21 13:30:06;;;;;;;18.58;2.45;;;16.10;99.90;;;;;;4893174;29;20619;-67
2021/05/21 13:38:13;;;;;;;8.30;2.00;;;15.80;99.90;;;;;;4935684;29;20270;-68
2021/05/21 13:44:17;;;;;;;13.35;2.25;;;16.20;99.90;;;;;;4946011;28;20063;-67
2021/05/21 13:46:42;;;;;;;17.25;3.22;;;16.40;99.90;;;;;;4936128;28;20552;-67
2021/05/21 13:49:08;;;;;;;6.82;1.50;;;16.50;99.30;;;;;;4971321;28;20513;-66
2021/05/21 13:51:33;;;;;;;11.48;2.28;;;16.50;99.50;;;;;;4982409;28;20037;-66
2021/05/21 13:57:04;;;;;;;10.60;2.05;;;16.80;99.90;;;;;;4984760;28;20042;-66
2021/05/21 13:59:36;;;;;;;12.07;2.45;;;16.90;94.70;;;;;;4986227;28;20462;-63
2021/05/21 14:02:39;;;;;;;18.20;2.42;;;16.60;94.60;;;;;;4989460;28;20149;-66
2021/05/21 14:05:34;;;;;;;13.13;2.33;;;16.40;95.30;;;;;;4915378;29;20079;-68
2021/05/21 14:08:45;;;;;;;13.10;2.42;;;16.20;97.10;;;;;;4904865;29;20058;-69
2021/05/21 14:11:12;;;;;;;19.27;3.10;;;16.10;97.70;;;;;;4920243;29;20418;-66
2021/05/21 14:13:54;;;;;;;14.75;2.40;;;16.30;97.70;;;;;;4922124;29;20063;-66
2021/05/21 14:16:46;;;;;;;11.25;1.73;;;16.30;97.80;;;;;;4914457;29;20249;-65
2021/05/21 14:19:13;;;;;;;15.83;2.37;;;16.10;96.50;;;;;;4912746;29;20179;-67
2021/05/21 14:21:53;;;;;;;14.18;2.25;;;16.30;95.40;;;;;;5004101;28;20251;-70
2021/05/21 14:24:39;;;;;;;16.67;2.05;;;16.30;93.90;;;;;;5005747;28;20022;-68
2021/05/21 14:30:18;;;;;;;12.73;1.77;;;16.20;92.80;;;;;;5028515;28;20033;-68
2021/05/21 14:33:08;;;;;;;15.13;2.25;;;16.20;90.50;;;;;;4976164;28;20543;-69
2021/05/21 14:35:59;;;;;;;7.22;1.25;;;16.50;92.10;;;;;;5014006;28;20390;-66
2021/05/21 14:38:24;;;;;;;10.35;1.65;;;16.50;90.20;;;;;;5023727;28;20022;-69
2021/05/21 14:40:50;;;;;;;12.57;2.15;;;16.60;92.50;;;;;;5016093;28;20037;-67
2021/05/21 14:43:15;;;;;;;15.82;2.13;;;16.50;92.40;;;;;;5014141;28;20479;-66
2021/05/21 14:45:41;;;;;;;19.05;1.98;;;16.50;92.30;;;;;;5018313;28;20017;-69
2021/05/21 14:48:27;;;;;;;;;;;;;;;;;;;;;
2021/05/21 14:51:20;;;;;;;11.10;2.08;;;16.80;94.00;;;;;;5002596;28;20098;-70
2021/05/21 14:53:46;;;;;;;15.02;2.42;;;16.80;92.50;;;;;;5019717;28;20046;-67
2021/05/21 14:56:43;;;;;;;12.77;2.55;;;16.80;91.40;;;;;;5021734;28;20021;-68
2021/05/21 14:59:09;;;;;;;11.35;1.80;;;16.70;92.30;;;;;;5021840;28;20038;-70
2021/05/21 15:01:41;;;;;;;7.13;1.75;;;16.90;92.40;;;;;;5015440;28;20036;-67